WETTERDATEN

GESTERN
Time Temp. Taup. r.Fe. Druck 1h Prec. 24h Prec.
00:07 1.9 0.1 88 1024.5 0.0000 0.0000
00:17 2 0.2 88 1024.4 0.0000 0.0000
00:27 2 0.2 88 1024.4 0.0000 0.0000
00:37 2.1 0.3 88 1024.5 0.0000 0.0000
00:47 2.2 0.4 88 1024.6 0.0000 0.0000
00:57 2.2 0.4 88 1024.6 0.0000 0.0000
01:08 2.2 0.4 88 1024.6 0.0000 0.0000
01:18 2.2 0.4 88 1024.6 0.0000 0.0000
01:27 2.2 0.4 88 1024.6 0.0000 0.0000
01:38 2.2 0.4 88 1024.5 0.0000 0.0000
01:48 2.2 0.4 88 1024.5 0.0000 0.0000
01:58 2.3 0.5 88 1024.5 0.0000 0.0000
02:08 2.3 0.5 88 1024.6 0.0000 0.0000
02:18 2.3 0.5 88 1024.6 0.0000 0.0000
02:28 2.4 0.6 88 1024.7 0.0000 0.0000
02:38 2.4 0.6 88 1024.7 0.0000 0.0000
02:49 2.4 0.6 88 1024.8 0.0000 0.0000
02:59 2.5 0.9 89 1024.8 0.0000 0.0000
03:08 2.5 0.9 89 1024.8 0.0000 0.0000
03:18 2.5 0.9 89 1024.8 0.0000 0.0000
03:29 2.6 1 89 1024.9 0.0000 0.0000
03:39 2.7 1.1 89 1024.9 0.0000 0.0000
03:49 2.7 1.1 89 1024.8 0.0000 0.0000
03:59 2.7 1.1 89 1024.8 0.0000 0.0000
04:09 2.7 1.1 89 1024.9 0.0000 0.0000
04:19 2.7 1.1 89 1024.9 0.0000 0.0000
04:29 2.6 1 89 1024.9 0.0000 0.0000
04:40 2.5 0.7 88 1024.9 0.0000 0.0000
04:49 2.4 0.6 88 1024.9 0.0000 0.0000
04:59 2.2 0.4 88 1024.9 0.0000 0.0000
05:10 2.2 0.4 88 1024.8 0.0000 0.0000
05:20 2.2 0.4 88 1024.8 0.0000 0.0000
05:30 2.2 0.6 89 1024.9 0.0000 0.0000
05:40 2.2 0.6 89 1025 0.0000 0.0000
05:50 2.2 0.6 89 1025 0.0000 0.0000
06:00 2.2 0.6 89 1025.1 0.1010 0.1000
06:10 2.2 0.6 89 1025.2 0.1010 0.1000
06:20 2.2 0.6 89 1025.2 0.1010 0.1000
06:31 2.2 0.6 89 1025.3 0.1010 0.1000
06:40 2.2 0.6 89 1025.3 0.1010 0.1000
06:50 2.2 0.7 90 1025.3 0.0000 0.1000
07:01 2.4 0.9 90 1025.4 0.0000 0.1000
07:11 2.5 1 90 1025.4 0.0000 0.1000
07:21 2.8 1.3 90 1025.4 0.0000 0.1000
07:30 3 1.7 91 1025.4 0.0000 0.1000
07:41 3.2 1.9 91 1025.4 0.0000 0.1000
07:51 3.3 2 91 1025.4 0.0000 0.1000
08:01 3.5 2.2 91 1025.5 0.0000 0.1000
08:12 3.6 2.1 90 1025.5 0.0000 0.1000
08:21 3.7 2.2 90 1025.4 0.0000 0.1000
08:31 3.9 2.4 90 1025.5 0.0000 0.1000
08:41 4 2.5 90 1025.6 0.0000 0.1000
08:52 4.2 2.7 90 1025.6 0.0000 0.1000
09:02 4.4 2.7 89 1025.6 0.0000 0.1000
09:12 4.7 3 89 1025.7 0.0000 0.1000
09:22 5 3.3 89 1025.8 0.0000 0.1000
09:32 5.3 3.5 88 1025.8 0.0000 0.1000
09:42 5.6 3.6 87 1025.8 0.0000 0.1000
09:52 6 3.8 86 1025.9 0.0000 0.1000
10:03 6 3.3 83 1026 0.0000 0.1000
10:12 6 3.2 82 1026 0.0000 0.1000
10:22 6.2 3.4 82 1026.1 0.0000 0.1000
10:33 6.3 3.5 82 1026.1 0.0000 0.1000
10:43 6.4 3.6 82 1026.2 0.0000 0.1000
10:53 6.4 3.4 81 1026.1 0.0000 0.1000
11:02 6.4 3.2 80 1026.1 0.0000 0.1000
11:13 6.6 3.4 80 1026.1 0.0000 0.1000
11:23 6.8 3.2 78 1026.1 0.0000 0.1000
11:33 6.9 3 76 1026.1 0.0000 0.1000
11:43 6.9 3.2 77 1026 0.0000 0.1000
11:53 7.1 3.2 76 1026.1 0.0000 0.1000
12:03 7.2 3.1 75 1026 0.0000 0.1000
12:13 7.3 3 74 1026.1 0.0000 0.1000
12:24 7 2.7 74 1026.1 0.0000 0.1000
12:34 6.9 2.8 75 1026.1 0.0000 0.1000
12:43 6.9 3 76 1026.2 0.0000 0.1000
12:53 6.8 3.1 77 1026.3 0.0000 0.1000
13:04 6.8 3.4 79 1026.3 0.0000 0.1000
13:14 6.9 3.5 79 1026.3 0.0000 0.1000
13:24 7.2 3.6 78 1026.3 0.0000 0.1000
13:35 7.3 3.2 75 1026.3 0.0000 0.1000
13:44 7.1 3.2 76 1026.3 0.0000 0.1000
13:54 7.3 3.2 75 1026.3 0.0000 0.1000
14:04 7.1 3 75 1026.3 0.0000 0.1000
14:15 7.1 3.3 77 1026.2 0.0000 0.1000
14:25 7.2 3.3 76 1026.2 0.0000 0.1000
14:34 7.1 3 75 1026.1 0.0000 0.1000
14:45 7 2.9 75 1026.1 0.0000 0.1000
14:55 6.8 2.9 76 1026.2 0.0000 0.1000
15:05 6.8 3.1 77 1026.2 0.0000 0.1000
15:15 6.7 3.1 78 1026.2 0.0000 0.1000
15:25 6.6 3 78 1026.2 0.0000 0.1000
15:35 6.5 2.9 78 1026.2 0.0000 0.1000
15:45 6.4 3 79 1026.2 0.0000 0.1000
15:56 6.3 2.9 79 1026.2 0.0000 0.1000
16:06 6.3 3.1 80 1026.1 0.0000 0.1000
16:15 6.4 3.2 80 1026.1 0.0000 0.1000
16:25 6.4 3.2 80 1026.1 0.0000 0.1000
16:36 6.4 3.2 80 1026.2 0.0000 0.1000
16:46 6.4 3.2 80 1026.2 0.0000 0.1000
16:56 6.4 3.2 80 1026.3 0.0000 0.1000
17:06 6.4 3.2 80 1026.3 0.0000 0.1000
17:16 6.3 2.9 79 1026.3 0.0000 0.1000
17:26 6.1 2.7 79 1026.3 0.0000 0.1000
17:36 5.9 2.5 79 1026.3 0.0000 0.1000
17:47 5.7 2.5 80 1026.2 0.0000 0.1000
17:57 5.6 2.4 80 1026.2 0.0000 0.1000
18:06 5.5 2.3 80 1026.3 0.0000 0.1000
18:16 5.4 2.2 80 1026.3 0.0000 0.1000
18:27 5.3 2 79 1026.3 0.0000 0.1000
18:37 5.3 2.1 80 1026.3 0.0000 0.1000
18:47 5.2 2 80 1026.3 0.0000 0.1000
18:57 5.1 1.8 79 1026.3 0.0000 0.1000
19:07 5 1.7 79 1026.3 0.0000 0.1000
19:17 4.9 1.6 79 1026.5 0.0000 0.1000
19:27 4.8 1.3 78 1026.5 0.0000 0.1000
19:38 4.8 1.3 78 1026.6 0.0000 0.1000
19:47 4.7 1.4 79 1026.7 0.0000 0.1000
19:57 4.6 1.3 79 1026.7 0.0000 0.1000
20:08 4.6 1.3 79 1026.8 0.0000 0.1000
20:18 4.5 1.2 79 1026.9 0.0000 0.1000
20:28 4.5 1.2 79 1026.9 0.0000 0.1000
20:37 4.4 1.1 79 1026.8 0.0000 0.1000
20:48 4.3 1 79 1026.9 0.0000 0.1000
20:58 4.3 1.2 80 1026.9 0.0000 0.1000
21:08 4.2 1.1 80 1027 0.0000 0.1000
21:19 4.2 1.1 80 1027 0.0000 0.1000
21:29 4.2 1.1 80 1027 0.0000 0.1000
21:38 4.1 1 80 1027.1 0.0000 0.1000
21:48 4.1 1 80 1027.1 0.0000 0.1000
21:59 4 0.9 80 1027.1 0.0000 0.1000
22:09 4 0.9 80 1027.2 0.0000 0.1000
22:19 3.9 0.8 80 1027.3 0.0000 0.1000
22:29 3.8 0.8 81 1027.3 0.0000 0.1000
22:39 3.7 0.7 81 1027.4 0.0000 0.1000
22:49 3.6 0.6 81 1027.3 0.0000 0.1000
22:59 3.5 0.7 82 1027.4 0.0000 0.1000
23:10 3.4 0.6 82 1027.3 0.0000 0.1000
23:19 3.3 0.5 82 1027.4 0.0000 0.1000
23:29 3.1 0.3 82 1027.4 0.0000 0.1000
23:39 3 0.4 83 1027.4 0.0000 0.1000
23:50 2.9 0.3 83 1027.4 0.0000 0.1000

TAGESSTATISTIK

2021-09-17
TEMPERATUR
MITTEL
4.5
MAXIMUM
7.3
12:13
MINIMUM
1.9
00:07
LUFTDRUCK
MITTEL
1025.9
MAXIMUM
1027.4
22:39
MINIMUM
1024.4
00:17
TAUPUNKT
MITTEL
1.8
MAXIMUM
3.8
09:52
MINIMUM
0.1
00:07
FEUCHTIGKEIT
MITTEL
83
MAXIMUM
91
07:30
MINIMUM
74
12:13
NIEDERSCHLAG
REGEN STUNDE
0.1
REGEN TAG
0.1
TEMPERATUR (°C)
MINIMUM
1.9
MAXIMUM
7.3
MITTEL
4.5
LUFTDRUCK (hpa)
MINIMUM
1024.4
MAXIMUM
1027.4
MITTEL
1025.9
MESSGERÄT